CPQ7 weather

Public forecast

Using degrees Celsius for public forecast. Weather courtesy of forecast.io.

Closest aviation weather report (METAR) to Skeleton Lake Seaplane Base

Closest report is Muskoka Airport, 16.4 nm (30.4 km) SSE. Retrieved 2020/08/14 16:00 UTC (41 minutes ago):

CYQA 141600Z AUTO 09005KT 350V120 9SM CLR 27/14 A3016 RMK SLP211 DENSITY ALT 2100FT

Closest aviation forecast (TAF) to Skeleton Lake Seaplane Base

Closest forecast is Muskoka Airport, 16.4 nm (30.4 km) SSE. Retrieved 2020/08/14 14:42 UTC (2 hours ago):

TAF CYQA 141338Z 1414/1502 10005KT P6SM SKC FM141700 07008KT P6SM FEW060 RMK FCST BASED ON AUTO OBS NXT FCST BY 142000Z